Time;durP1;ratioP1;P1;durP2;ratioP2;P2;SDS_P1;SDS_P2;PMS_P1;PMS_P2;Temp;Humidity;BMP_temperature;BMP_pressure;BME280_temperature;BME280_humidity;BME280_pressure;Samples;Min_cycle;Max_cycle;Signal;HPM_P1;HPM_P2
2024/01/13 00:01:48;;;;;;;62.60;31.30;;;3.20;99.90;;;;;;5075092;28;20445;-65
2024/01/13 00:04:15;;;;;;;63.50;29.67;;;3.20;99.90;;;;;;5074944;28;20447;-65
2024/01/13 00:06:42;;;;;;;58.70;30.33;;;3.30;99.90;;;;;;5074615;28;20449;-65
2024/01/13 00:09:10;;;;;;;59.63;29.90;;;3.20;99.90;;;;;;5074728;28;20486;-65
2024/01/13 00:11:37;;;;;;;57.07;30.77;;;3.30;99.90;;;;;;5074819;28;20477;-65
2024/01/13 00:14:04;;;;;;;62.77;32.17;;;3.40;99.90;;;;;;5074676;28;20475;-64
2024/01/13 00:16:30;;;;;;;61.57;30.23;;;3.30;99.90;;;;;;5074725;28;20447;-65
2024/01/13 00:18:58;;;;;;;68.00;31.20;;;3.30;99.90;;;;;;5074187;28;21001;-65
2024/01/13 00:21:25;;;;;;;57.17;31.03;;;3.30;99.90;;;;;;5074459;28;20437;-65
2024/01/13 00:23:52;;;;;;;64.90;30.07;;;3.20;99.90;;;;;;5074576;28;20857;-64
2024/01/13 00:26:18;;;;;;;66.80;30.57;;;3.20;99.90;;;;;;5074941;28;20854;-64
2024/01/13 00:28:45;;;;;;;63.07;31.87;;;3.30;99.90;;;;;;5074220;28;20468;-64
2024/01/13 00:31:12;;;;;;;65.13;30.80;;;3.20;99.90;;;;;;5074349;28;20484;-65
2024/01/13 00:33:43;;;;;;;56.00;28.90;;;3.20;99.90;;;;;;5074332;28;20453;-65
2024/01/13 00:36:11;;;;;;;54.27;28.67;;;3.20;99.90;;;;;;5073671;28;20520;-65
2024/01/13 00:38:38;;;;;;;63.10;31.27;;;3.20;99.90;;;;;;5073577;28;20460;-65
2024/01/13 00:41:06;;;;;;;63.80;28.33;;;3.20;99.90;;;;;;5074133;28;20468;-64
2024/01/13 00:43:32;;;;;;;60.97;30.13;;;3.20;99.90;;;;;;5074252;28;20448;-64
2024/01/13 00:45:59;;;;;;;69.27;29.50;;;3.30;99.90;;;;;;5074044;28;20456;-64
2024/01/13 00:48:26;;;;;;;62.40;30.67;;;3.30;99.90;;;;;;5073891;28;20461;-65
2024/01/13 00:50:53;;;;;;;62.63;31.87;;;3.30;99.90;;;;;;5073729;28;20484;-64
2024/01/13 00:53:21;;;;;;;58.17;30.03;;;3.30;99.90;;;;;;5073782;28;20523;-64
2024/01/13 00:55:47;;;;;;;61.90;28.60;;;3.40;99.90;;;;;;5073627;28;20467;-64
2024/01/13 00:58:16;;;;;;;54.10;28.70;;;3.50;99.90;;;;;;5072827;28;20973;-64
2024/01/13 01:00:42;;;;;;;49.87;27.23;;;3.50;99.90;;;;;;5073706;28;20445;-64
2024/01/13 01:03:09;;;;;;;54.10;29.63;;;3.50;99.90;;;;;;5073481;28;20460;-65
2024/01/13 01:05:36;;;;;;;51.90;27.80;;;3.50;99.90;;;;;;5073567;28;20452;-64
2024/01/13 01:08:03;;;;;;;48.07;26.90;;;3.50;99.90;;;;;;5073609;28;20445;-64
2024/01/13 01:10:31;;;;;;;52.87;27.90;;;3.50;99.90;;;;;;5073179;28;20477;-64
2024/01/13 01:12:57;;;;;;;57.97;30.03;;;3.50;99.90;;;;;;5073182;28;20819;-64
2024/01/13 01:15:24;;;;;;;53.40;29.70;;;3.60;99.90;;;;;;5073119;28;20938;-64
2024/01/13 01:17:51;;;;;;;48.73;28.80;;;3.60;99.90;;;;;;5073417;28;20445;-64
2024/01/13 01:20:19;;;;;;;57.30;27.40;;;3.60;99.90;;;;;;5073268;28;20475;-64
2024/01/13 01:22:46;;;;;;;52.13;27.00;;;3.60;99.90;;;;;;5073552;28;20445;-64
2024/01/13 01:25:13;;;;;;;57.50;27.37;;;3.50;99.90;;;;;;5073498;28;20443;-64
2024/01/13 01:27:41;;;;;;;48.10;26.40;;;3.50;99.90;;;;;;5073399;28;20452;-65
2024/01/13 01:30:08;;;;;;;52.30;27.03;;;3.50;99.90;;;;;;5073246;28;20487;-66
2024/01/13 01:32:35;;;;;;;45.93;27.30;;;3.50;99.90;;;;;;5073418;28;20444;-65
2024/01/13 01:35:02;;;;;;;48.93;26.73;;;3.50;99.90;;;;;;5073020;28;20452;-64
2024/01/13 01:37:28;;;;;;;52.20;26.53;;;3.50;99.90;;;;;;5073327;28;20436;-64
2024/01/13 01:39:55;;;;;;;50.10;27.20;;;3.50;99.90;;;;;;5072944;28;20966;-64
2024/01/13 01:42:22;;;;;;;46.63;27.33;;;3.50;99.90;;;;;;5073553;28;20529;-64
2024/01/13 01:44:50;;;;;;;50.10;28.10;;;3.50;99.90;;;;;;5074176;28;20453;-64
2024/01/13 01:47:19;;;;;;;55.70;26.17;;;3.40;99.90;;;;;;5074103;28;20444;-64
2024/01/13 01:49:46;;;;;;;50.97;27.57;;;3.40;99.90;;;;;;5073644;28;20496;-64
2024/01/13 01:52:15;;;;;;;67.77;26.90;;;3.40;99.90;;;;;;5074045;28;20801;-64
2024/01/13 01:54:43;;;;;;;54.13;26.60;;;3.40;99.90;;;;;;5073942;28;20455;-65
2024/01/13 01:57:14;;;;;;;48.33;26.70;;;3.50;99.90;;;;;;5073322;28;20961;-64
2024/01/13 01:59:41;;;;;;;51.37;25.80;;;3.50;99.90;;;;;;5073509;28;20851;-64
2024/01/13 02:02:09;;;;;;;46.50;27.33;;;3.50;99.90;;;;;;5073682;28;20452;-64
2024/01/13 02:04:36;;;;;;;54.83;26.93;;;3.50;99.90;;;;;;5072939;28;20437;-64
2024/01/13 02:07:03;;;;;;;54.87;26.63;;;3.50;99.90;;;;;;5073311;28;20467;-63
2024/01/13 02:09:30;;;;;;;51.37;26.97;;;3.50;99.90;;;;;;5073866;28;20464;-63
2024/01/13 02:11:57;;;;;;;48.63;25.67;;;3.50;99.90;;;;;;5073610;28;20480;-64
2024/01/13 02:14:24;;;;;;;50.23;26.20;;;3.50;99.90;;;;;;5073257;28;20468;-64
2024/01/13 02:16:51;;;;;;;46.70;25.13;;;3.40;99.90;;;;;;5073111;28;20440;-63
2024/01/13 02:19:19;;;;;;;50.73;27.47;;;3.50;99.90;;;;;;5073370;28;20497;-63
2024/01/13 02:21:47;;;;;;;50.63;27.17;;;3.50;99.90;;;;;;5073152;28;20436;-63
2024/01/13 02:24:14;;;;;;;52.40;25.30;;;3.40;99.90;;;;;;5073186;28;20444;-63
2024/01/13 02:26:41;;;;;;;53.20;26.23;;;3.40;99.90;;;;;;5072754;28;20441;-62
2024/01/13 02:29:07;;;;;;;49.47;26.17;;;3.50;99.90;;;;;;5072916;28;20531;-63
2024/01/13 02:31:34;;;;;;;51.10;26.60;;;3.50;99.90;;;;;;5072749;28;20483;-63
2024/01/13 02:34:01;;;;;;;49.77;24.93;;;3.50;99.90;;;;;;5072968;28;20460;-63
2024/01/13 02:36:28;;;;;;;54.23;26.70;;;3.60;99.90;;;;;;5072466;28;20448;-62
2024/01/13 02:38:56;;;;;;;47.53;26.27;;;3.50;99.90;;;;;;5072816;28;20467;-63
2024/01/13 02:41:22;;;;;;;48.60;24.53;;;3.50;99.90;;;;;;5072545;28;20927;-63
2024/01/13 02:43:49;;;;;;;51.30;27.80;;;3.60;99.90;;;;;;5072824;28;20440;-63
2024/01/13 02:46:16;;;;;;;51.73;26.63;;;3.50;99.90;;;;;;5072628;28;20829;-63
2024/01/13 02:48:46;;;;;;;51.27;26.67;;;3.60;99.90;;;;;;5072552;28;20962;-63
2024/01/13 02:51:15;;;;;;;52.40;26.30;;;3.50;99.90;;;;;;5072630;28;20475;-63
2024/01/13 02:53:42;;;;;;;53.30;27.60;;;3.50;99.90;;;;;;5072815;28;20528;-63
2024/01/13 02:56:10;;;;;;;47.23;26.40;;;3.50;99.90;;;;;;5072864;28;20460;-63
2024/01/13 02:58:37;;;;;;;51.20;25.37;;;3.50;99.90;;;;;;5072699;28;20467;-63
2024/01/13 03:01:06;;;;;;;50.97;25.60;;;3.50;99.90;;;;;;5074641;28;20444;-64
2024/01/13 03:03:33;;;;;;;56.07;25.10;;;3.50;99.90;;;;;;5076215;28;20535;-63
2024/01/13 03:06:00;;;;;;;54.17;26.60;;;3.40;99.90;;;;;;5076224;28;20819;-63
2024/01/13 03:08:27;;;;;;;50.20;25.50;;;3.40;99.90;;;;;;5075985;28;20451;-63
2024/01/13 03:10:53;;;;;;;48.17;28.13;;;3.40;99.90;;;;;;5076070;28;20484;-63
2024/01/13 03:13:22;;;;;;;57.23;26.83;;;3.50;99.90;;;;;;5075706;28;20444;-63
2024/01/13 03:15:48;;;;;;;46.77;24.37;;;3.40;99.90;;;;;;5075546;28;20960;-63
2024/01/13 03:18:15;;;;;;;47.63;26.30;;;3.40;99.90;;;;;;5075947;28;20437;-63
2024/01/13 03:20:42;;;;;;;49.60;25.67;;;3.40;99.90;;;;;;5075614;28;20441;-63
2024/01/13 03:23:08;;;;;;;48.07;26.07;;;3.40;99.90;;;;;;5075908;28;20451;-63
2024/01/13 03:25:35;;;;;;;50.00;25.20;;;3.40;99.90;;;;;;5076533;28;20784;-63
2024/01/13 03:28:02;;;;;;;48.37;26.73;;;3.40;99.90;;;;;;5075700;28;20459;-63
2024/01/13 03:30:30;;;;;;;54.80;28.07;;;3.40;99.90;;;;;;5075411;28;20491;-63
2024/01/13 03:32:57;;;;;;;45.43;26.37;;;3.50;99.90;;;;;;5075408;28;20445;-63
2024/01/13 03:35:23;;;;;;;47.30;26.33;;;3.50;99.90;;;;;;5075359;28;20452;-63
2024/01/13 03:37:50;;;;;;;49.47;25.50;;;3.50;99.90;;;;;;5075543;28;20445;-63
2024/01/13 03:40:17;;;;;;;47.43;23.37;;;3.50;99.90;;;;;;5075407;28;20469;-63
2024/01/13 03:42:45;;;;;;;49.33;23.63;;;3.50;99.90;;;;;;5075198;28;20813;-64
2024/01/13 03:45:12;;;;;;;42.93;25.17;;;3.50;99.90;;;;;;5075122;28;20440;-63
2024/01/13 03:47:40;;;;;;;46.43;24.00;;;3.60;99.90;;;;;;5075671;28;20441;-63
2024/01/13 03:50:08;;;;;;;47.33;26.27;;;3.60;99.90;;;;;;5074942;28;20464;-63
2024/01/13 03:52:35;;;;;;;45.97;24.20;;;3.50;99.90;;;;;;5075041;28;20487;-63
2024/01/13 03:55:02;;;;;;;40.47;23.90;;;3.50;99.90;;;;;;5075195;28;20445;-63
2024/01/13 03:57:29;;;;;;;45.50;22.27;;;3.50;99.90;;;;;;5075183;28;20456;-63
2024/01/13 03:59:55;;;;;;;49.43;23.57;;;3.50;99.90;;;;;;5074631;28;21001;-63
2024/01/13 04:02:22;;;;;;;43.73;20.80;;;3.50;99.90;;;;;;5074973;28;20444;-63
2024/01/13 04:04:50;;;;;;;37.70;20.70;;;3.50;99.90;;;;;;5074847;28;20498;-63
2024/01/13 04:07:17;;;;;;;38.30;19.70;;;3.50;99.90;;;;;;5074887;28;20810;-63
2024/01/13 04:09:44;;;;;;;36.20;19.50;;;3.60;99.90;;;;;;5074782;28;20456;-64
2024/01/13 04:12:11;;;;;;;31.33;19.67;;;3.50;99.90;;;;;;5073453;28;20602;-63
2024/01/13 04:14:37;;;;;;;38.67;21.37;;;3.60;99.90;;;;;;5074830;28;20826;-63
2024/01/13 04:17:05;;;;;;;30.50;17.93;;;3.60;99.90;;;;;;5074738;28;20453;-64
2024/01/13 04:19:31;;;;;;;32.17;16.97;;;3.60;99.90;;;;;;5074560;28;20472;-63
2024/01/13 04:21:59;;;;;;;33.73;18.63;;;3.60;99.90;;;;;;5074572;28;20441;-63
2024/01/13 04:24:26;;;;;;;34.50;16.87;;;3.60;99.90;;;;;;5074639;28;20440;-64
2024/01/13 04:26:53;;;;;;;28.60;18.77;;;3.60;99.90;;;;;;5074387;28;20953;-63
2024/01/13 04:29:19;;;;;;;35.73;19.50;;;3.60;99.90;;;;;;5074004;28;20476;-63
2024/01/13 04:31:46;;;;;;;31.40;18.70;;;3.60;99.90;;;;;;5074295;28;20927;-62
2024/01/13 04:34:13;;;;;;;36.20;19.70;;;3.70;99.90;;;;;;5074189;28;20444;-63
2024/01/13 04:36:39;;;;;;;35.13;19.70;;;3.60;99.90;;;;;;5073963;28;20453;-63
2024/01/13 04:39:08;;;;;;;38.20;20.87;;;3.60;99.90;;;;;;5074113;28;20468;-63
2024/01/13 04:41:35;;;;;;;37.93;20.93;;;3.70;99.90;;;;;;5074293;28;20452;-63
2024/01/13 04:44:03;;;;;;;42.57;23.30;;;3.70;99.90;;;;;;5074234;28;20440;-63
2024/01/13 04:46:30;;;;;;;34.63;21.40;;;3.80;99.90;;;;;;5074186;28;20453;-63
2024/01/13 04:48:56;;;;;;;46.57;23.47;;;3.70;99.90;;;;;;5074182;28;20472;-63
2024/01/13 04:51:23;;;;;;;43.63;22.83;;;3.80;99.90;;;;;;5073567;28;20990;-63
2024/01/13 04:53:50;;;;;;;46.10;23.60;;;3.80;99.90;;;;;;5074001;28;20962;-63
2024/01/13 04:56:18;;;;;;;38.17;23.00;;;3.80;99.90;;;;;;5074043;28;20451;-63
2024/01/13 04:58:45;;;;;;;42.40;23.63;;;3.80;99.90;;;;;;5074638;28;20465;-63
2024/01/13 05:01:11;;;;;;;41.77;24.60;;;3.70;99.90;;;;;;5074603;28;20448;-63
2024/01/13 05:03:38;;;;;;;38.90;23.00;;;3.70;99.90;;;;;;5074353;28;20441;-63
2024/01/13 05:06:06;;;;;;;39.33;23.10;;;3.80;99.90;;;;;;5074622;28;20443;-63
2024/01/13 05:08:33;;;;;;;35.80;21.37;;;3.80;99.90;;;;;;5074253;28;20468;-63
2024/01/13 05:11:00;;;;;;;52.53;22.47;;;3.80;99.90;;;;;;5074513;28;20476;-63
2024/01/13 05:13:28;;;;;;;42.10;22.73;;;3.80;99.90;;;;;;5074114;28;20440;-63
2024/01/13 05:15:55;;;;;;;40.63;20.50;;;3.90;99.90;;;;;;5074188;28;20440;-63
2024/01/13 05:18:21;;;;;;;36.23;21.77;;;3.90;99.90;;;;;;5073655;28;20445;-63
2024/01/13 05:20:48;;;;;;;42.40;23.93;;;3.90;99.90;;;;;;5073898;28;20449;-63
2024/01/13 05:23:15;;;;;;;38.63;22.27;;;3.80;99.90;;;;;;5072945;28;20961;-65
2024/01/13 05:25:42;;;;;;;45.07;23.20;;;3.80;99.90;;;;;;5073696;28;20441;-63
2024/01/13 05:28:08;;;;;;;37.30;21.93;;;3.80;99.90;;;;;;5073334;28;20946;-63
2024/01/13 05:30:36;;;;;;;38.20;23.10;;;3.80;99.90;;;;;;5073602;28;20449;-62
2024/01/13 05:33:04;;;;;;;42.77;22.13;;;3.80;99.90;;;;;;5073340;28;20480;-63
2024/01/13 05:35:30;;;;;;;44.30;22.70;;;3.70;99.90;;;;;;5073308;28;20449;-63
2024/01/13 05:37:57;;;;;;;40.77;23.43;;;3.70;99.90;;;;;;5073484;28;20449;-63
2024/01/13 05:40:25;;;;;;;47.80;24.23;;;3.60;99.90;;;;;;5073447;28;20456;-63
2024/01/13 05:42:51;;;;;;;36.00;21.30;;;3.70;99.90;;;;;;5073391;28;20468;-63
2024/01/13 05:45:18;;;;;;;40.67;22.80;;;3.60;99.90;;;;;;5073143;28;20942;-63
2024/01/13 05:47:46;;;;;;;37.07;21.43;;;3.70;99.90;;;;;;5073254;28;20959;-63
2024/01/13 05:50:13;;;;;;;37.03;23.07;;;3.60;99.90;;;;;;5073483;28;20468;-63
2024/01/13 05:52:39;;;;;;;37.93;22.20;;;3.60;99.90;;;;;;5073250;28;20480;-63
2024/01/13 05:55:07;;;;;;;40.37;21.20;;;3.60;99.90;;;;;;5073098;28;20440;-63
2024/01/13 05:57:33;;;;;;;36.07;21.90;;;3.60;99.90;;;;;;5073575;28;20440;-63
2024/01/13 06:00:00;;;;;;;42.30;20.90;;;3.60;99.90;;;;;;5073227;28;20487;-63
2024/01/13 06:02:27;;;;;;;37.73;23.63;;;3.50;99.90;;;;;;5073237;28;20449;-62
2024/01/13 06:04:55;;;;;;;40.77;21.47;;;3.60;99.90;;;;;;5073207;28;20456;-63
2024/01/13 06:07:22;;;;;;;37.50;20.90;;;3.60;99.90;;;;;;5073561;28;20453;-63
2024/01/13 06:09:49;;;;;;;39.40;21.37;;;3.60;99.90;;;;;;5073187;28;20619;-63
2024/01/13 06:12:16;;;;;;;41.17;22.20;;;3.60;99.90;;;;;;5073291;28;20856;-63
2024/01/13 06:14:42;;;;;;;34.67;22.17;;;3.60;99.90;;;;;;5073226;28;20452;-63
2024/01/13 06:17:09;;;;;;;34.40;21.37;;;3.60;99.90;;;;;;5073408;28;20448;-63
2024/01/13 06:19:36;;;;;;;33.60;20.77;;;3.70;99.90;;;;;;5072856;28;20962;-64
2024/01/13 06:22:04;;;;;;;33.53;21.00;;;3.70;99.90;;;;;;5073417;28;20490;-64
2024/01/13 06:24:31;;;;;;;35.07;20.33;;;3.70;99.90;;;;;;5074143;28;20989;-63
2024/01/13 06:26:58;;;;;;;34.57;21.43;;;3.60;99.90;;;;;;5073077;28;20459;-63
2024/01/13 06:29:24;;;;;;;35.03;21.10;;;3.60;99.90;;;;;;5072791;28;20488;-63
2024/01/13 06:31:51;;;;;;;32.67;22.00;;;3.70;99.90;;;;;;5072716;28;20492;-63
2024/01/13 06:34:18;;;;;;;33.90;20.67;;;3.70;99.90;;;;;;5072537;28;20974;-63
2024/01/13 06:36:44;;;;;;;32.23;20.93;;;3.70;99.90;;;;;;5075661;28;20460;-63
2024/01/13 06:39:12;;;;;;;35.43;21.63;;;3.70;99.90;;;;;;5076504;28;20460;-62
2024/01/13 06:41:39;;;;;;;31.50;21.87;;;3.70;99.90;;;;;;5076609;28;20444;-63
2024/01/13 06:44:07;;;;;;;28.93;19.40;;;3.70;99.90;;;;;;5076630;28;20443;-63
2024/01/13 06:46:33;;;;;;;32.50;21.70;;;3.80;99.90;;;;;;5076157;28;20779;-62
2024/01/13 06:49:00;;;;;;;36.87;22.17;;;3.70;99.90;;;;;;5076390;28;20467;-63
2024/01/13 06:51:27;;;;;;;45.00;24.20;;;3.70;99.90;;;;;;5076383;28;20464;-63
2024/01/13 06:53:53;;;;;;;35.10;21.80;;;3.70;99.90;;;;;;5076854;28;20444;-63
2024/01/13 06:56:21;;;;;;;34.80;23.30;;;3.70;99.90;;;;;;5076778;28;20552;-64
2024/01/13 06:58:48;;;;;;;31.73;21.97;;;3.80;99.90;;;;;;5076259;28;20463;-63
2024/01/13 07:01:15;;;;;;;34.83;22.00;;;3.80;99.90;;;;;;5076161;28;20444;-63
2024/01/13 07:03:42;;;;;;;29.63;22.50;;;3.80;99.90;;;;;;5075923;28;20848;-63
2024/01/13 07:06:09;;;;;;;29.77;21.73;;;3.90;99.90;;;;;;5076124;28;20440;-62
2024/01/13 07:08:36;;;;;;;29.60;17.83;;;3.80;99.90;;;;;;5075712;28;20468;-63
2024/01/13 07:11:11;;;;;;;27.20;21.47;;;3.90;99.90;;;;;;5075940;28;20509;-63
2024/01/13 07:13:41;;;;;;;34.30;20.90;;;3.90;99.90;;;;;;5075767;28;20468;-63
2024/01/13 07:16:07;;;;;;;31.97;22.50;;;3.90;99.90;;;;;;5075885;28;20440;-63
2024/01/13 07:18:34;;;;;;;37.30;22.50;;;3.90;99.90;;;;;;5075828;28;20492;-63
2024/01/13 07:21:01;;;;;;;31.50;22.43;;;4.00;99.90;;;;;;5075838;28;20453;-63
2024/01/13 07:23:28;;;;;;;29.77;20.97;;;4.00;99.90;;;;;;5075857;28;20440;-63
2024/01/13 07:25:55;;;;;;;36.10;22.60;;;4.00;99.90;;;;;;5075732;28;20445;-62
2024/01/13 07:28:22;;;;;;;35.60;22.80;;;4.00;99.90;;;;;;5075711;28;20463;-63
2024/01/13 07:30:50;;;;;;;38.13;21.20;;;4.00;99.90;;;;;;5075629;28;20441;-64
2024/01/13 07:33:17;;;;;;;37.83;23.83;;;4.00;99.90;;;;;;5075505;28;20581;-63
2024/01/13 07:35:44;;;;;;;32.87;19.90;;;4.00;99.90;;;;;;5075140;28;21022;-63
2024/01/13 07:38:10;;;;;;;39.43;21.60;;;3.90;99.90;;;;;;5075556;28;20440;-63
2024/01/13 07:40:37;;;;;;;34.10;21.93;;;3.90;99.90;;;;;;5075497;28;20448;-62
2024/01/13 07:43:04;;;;;;;28.50;20.90;;;3.90;99.90;;;;;;5075511;28;20491;-62
2024/01/13 07:45:31;;;;;;;33.80;21.20;;;3.90;99.90;;;;;;5075395;28;20444;-63
2024/01/13 07:47:59;;;;;;;27.87;21.47;;;3.90;99.90;;;;;;5075043;28;20445;-63
2024/01/13 07:50:26;;;;;;;35.40;21.33;;;4.00;99.90;;;;;;5075804;28;20457;-62
2024/01/13 07:52:52;;;;;;;30.00;21.27;;;4.00;99.90;;;;;;5075019;28;20853;-62
2024/01/13 07:55:19;;;;;;;31.20;20.40;;;3.90;99.90;;;;;;5075222;28;20441;-62
2024/01/13 07:57:46;;;;;;;30.10;21.53;;;4.00;99.90;;;;;;5075354;28;20445;-62
2024/01/13 08:00:13;;;;;;;29.20;19.50;;;4.00;99.90;;;;;;5075052;28;20457;-62
2024/01/13 08:02:40;;;;;;;29.97;19.33;;;4.00;99.90;;;;;;5074750;28;20444;-63
2024/01/13 08:05:08;;;;;;;28.77;20.27;;;4.10;99.90;;;;;;5075068;28;20437;-62
2024/01/13 08:07:35;;;;;;;29.23;20.07;;;4.10;99.90;;;;;;5074904;28;20441;-62
2024/01/13 08:10:02;;;;;;;33.53;20.20;;;4.10;99.90;;;;;;5074918;28;20493;-62
2024/01/13 08:12:29;;;;;;;25.60;18.00;;;4.00;99.90;;;;;;5074763;28;20472;-63
2024/01/13 08:14:56;;;;;;;28.90;18.63;;;4.00;99.90;;;;;;5074942;28;20443;-63
2024/01/13 08:17:23;;;;;;;24.23;18.20;;;4.00;99.90;;;;;;5075668;28;20445;-63
2024/01/13 08:19:49;;;;;;;24.70;18.40;;;4.00;99.90;;;;;;5076068;28;20504;-63
2024/01/13 08:22:17;;;;;;;25.43;17.77;;;4.00;99.90;;;;;;5075675;28;20787;-62
2024/01/13 08:24:44;;;;;;;25.40;18.40;;;4.10;99.90;;;;;;5075122;28;20448;-62
2024/01/13 08:27:11;;;;;;;26.53;16.90;;;4.20;99.90;;;;;;5074847;28;20455;-62
2024/01/13 08:29:37;;;;;;;25.87;18.60;;;4.10;99.90;;;;;;5075043;28;20467;-62
2024/01/13 08:32:05;;;;;;;25.17;18.37;;;4.20;99.90;;;;;;5074484;28;20500;-62
2024/01/13 09:04:50;;;;;;;23.40;13.90;;;4.20;99.90;;;;;;5074472;28;20488;-62
2024/01/13 09:07:17;;;;;;;17.73;14.80;;;4.20;99.90;;;;;;5074373;28;20436;-62
2024/01/13 09:09:44;;;;;;;18.40;13.50;;;4.20;99.90;;;;;;5074511;28;20510;-62
2024/01/13 09:12:11;;;;;;;19.17;14.23;;;4.20;99.90;;;;;;5074592;28;20811;-62
2024/01/13 09:14:37;;;;;;;18.20;12.90;;;4.20;99.90;;;;;;5073955;28;20452;-62
2024/01/13 09:17:04;;;;;;;15.67;10.90;;;4.30;99.90;;;;;;5073938;28;20447;-62
2024/01/13 09:19:31;;;;;;;14.20;11.00;;;4.20;99.90;;;;;;5073908;28;20468;-62
2024/01/13 09:21:59;;;;;;;15.00;10.63;;;4.20;99.90;;;;;;5073776;28;20456;-62
2024/01/13 09:24:25;;;;;;;16.07;9.80;;;4.10;99.90;;;;;;5073551;28;20440;-62
2024/01/13 09:26:52;;;;;;;14.50;10.80;;;4.10;99.90;;;;;;5073313;28;20451;-62
2024/01/13 09:29:20;;;;;;;15.90;12.03;;;4.20;99.90;;;;;;5073167;28;20971;-63
2024/01/13 09:31:46;;;;;;;12.67;9.50;;;4.20;99.90;;;;;;5073395;28;20445;-63
2024/01/13 09:34:14;;;;;;;11.40;10.17;;;4.20;99.90;;;;;;5073179;28;20485;-63
2024/01/13 09:36:40;;;;;;;15.27;10.37;;;4.30;99.90;;;;;;5073044;28;20506;-63
2024/01/13 09:39:10;;;;;;;12.20;8.80;;;4.20;99.90;;;;;;5073143;28;20465;-62
2024/01/13 09:41:38;;;;;;;13.07;8.33;;;4.30;99.90;;;;;;5073401;28;20433;-62
2024/01/13 09:44:13;;;;;;;13.67;10.37;;;4.20;99.90;;;;;;5073345;28;20817;-62
2024/01/13 09:46:40;;;;;;;15.83;10.27;;;4.20;99.90;;;;;;5073595;28;20435;-62
2024/01/13 09:49:12;;;;;;;13.47;9.13;;;4.20;99.90;;;;;;5073314;28;20491;-63
2024/01/13 09:51:39;;;;;;;14.70;9.73;;;4.10;99.90;;;;;;5073266;28;20486;-62
2024/01/13 09:54:12;;;;;;;13.27;9.70;;;4.10;99.90;;;;;;5073017;28;20492;-62
2024/01/13 09:56:44;;;;;;;10.63;8.40;;;4.10;99.90;;;;;;5073087;28;20425;-62
2024/01/13 09:59:11;;;;;;;10.47;8.53;;;4.10;99.90;;;;;;5073051;28;20823;-63
2024/01/13 10:01:39;;;;;;;11.90;9.50;;;4.10;99.90;;;;;;5073016;28;20449;-62
2024/01/13 10:04:07;;;;;;;11.70;8.97;;;4.20;99.90;;;;;;5073018;28;20432;-62
2024/01/13 10:06:34;;;;;;;12.60;8.97;;;4.30;99.90;;;;;;5072949;28;20467;-62
2024/01/13 10:09:01;;;;;;;12.97;9.30;;;4.30;99.90;;;;;;5073486;28;20461;-62
2024/01/13 10:11:30;;;;;;;10.37;8.57;;;4.30;99.90;;;;;;5077237;28;20452;-62
2024/01/13 10:14:00;;;;;;;13.73;9.43;;;4.30;99.90;;;;;;5076844;28;20488;-62
2024/01/13 10:16:29;;;;;;;14.83;9.57;;;4.30;99.90;;;;;;5076912;28;20444;-63
2024/01/13 10:18:56;;;;;;;10.10;8.10;;;4.30;99.90;;;;;;5076826;28;20521;-62
2024/01/13 10:21:24;;;;;;;13.43;9.83;;;4.30;99.90;;;;;;5076903;28;20444;-63
2024/01/13 10:23:51;;;;;;;11.30;8.80;;;4.30;99.90;;;;;;5076985;28;20521;-63
2024/01/13 10:26:18;;;;;;;12.20;9.07;;;4.40;99.90;;;;;;5076819;28;20436;-62
2024/01/13 10:28:46;;;;;;;10.77;8.40;;;4.40;99.90;;;;;;5076203;28;20816;-63
2024/01/13 10:31:13;;;;;;;13.73;8.67;;;4.40;99.90;;;;;;5076584;28;20439;-63
2024/01/13 10:33:40;;;;;;;12.70;9.27;;;4.30;99.90;;;;;;5076448;28;20480;-63
2024/01/13 10:36:10;;;;;;;11.57;8.87;;;4.30;99.90;;;;;;5076261;28;20456;-63
2024/01/13 10:38:39;;;;;;;11.60;8.40;;;4.30;99.90;;;;;;5076092;28;20823;-63
2024/01/13 10:41:06;;;;;;;13.30;9.67;;;4.20;99.90;;;;;;5076024;28;21049;-63
2024/01/13 10:43:34;;;;;;;13.70;9.30;;;4.20;99.90;;;;;;5076316;28;20535;-63
2024/01/13 10:46:05;;;;;;;14.03;9.67;;;4.20;99.90;;;;;;5076348;28;20451;-63
2024/01/13 10:48:37;;;;;;;11.63;9.07;;;4.20;99.90;;;;;;5076367;28;20436;-63
2024/01/13 10:51:10;;;;;;;16.20;11.90;;;4.20;99.90;;;;;;5076339;28;20420;-63
2024/01/13 10:53:37;;;;;;;13.73;9.70;;;4.20;99.90;;;;;;5076065;28;20465;-63
2024/01/13 10:56:06;;;;;;;11.40;9.40;;;4.20;99.90;;;;;;5076178;28;20448;-62
2024/01/13 10:58:34;;;;;;;12.57;9.90;;;4.20;99.90;;;;;;5075658;28;20815;-62
2024/01/13 11:01:03;;;;;;;13.47;10.67;;;4.10;99.90;;;;;;5075822;28;20965;-63
2024/01/13 11:03:31;;;;;;;16.37;10.83;;;4.10;99.90;;;;;;5076086;28;20447;-63
2024/01/13 11:05:58;;;;;;;13.97;10.80;;;4.20;99.90;;;;;;5076045;28;20539;-63
2024/01/13 11:08:26;;;;;;;10.50;9.07;;;4.20;99.90;;;;;;5076087;28;20441;-63
2024/01/13 11:10:54;;;;;;;15.27;11.37;;;4.30;99.90;;;;;;5075553;28;20613;-63
2024/01/13 11:13:22;;;;;;;13.03;9.93;;;4.30;99.90;;;;;;5075362;28;20844;-63
2024/01/13 11:15:56;;;;;;;12.13;10.30;;;4.30;99.90;;;;;;5075708;28;20445;-62
2024/01/13 11:18:26;;;;;;;14.80;11.33;;;4.30;99.90;;;;;;5075800;28;20424;-63
2024/01/13 11:21:06;;;;;;;13.83;10.30;;;4.30;99.90;;;;;;5075104;28;20445;-63
2024/01/13 11:23:40;;;;;;;13.80;10.40;;;4.40;99.90;;;;;;5075337;28;20901;-63
2024/01/13 11:26:07;;;;;;;13.20;10.07;;;4.40;99.90;;;;;;5075640;28;20445;-63
2024/01/13 11:28:53;;;;;;;13.97;11.07;;;4.40;99.90;;;;;;5076231;28;20490;-63
2024/01/13 11:31:33;;;;;;;15.27;9.97;;;4.50;99.90;;;;;;5076508;28;20428;-62
2024/01/13 11:34:02;;;;;;;16.73;11.00;;;4.40;99.90;;;;;;5076392;28;20598;-64
2024/01/13 11:36:30;;;;;;;14.63;11.60;;;4.40;99.90;;;;;;5075741;28;20449;-63
2024/01/13 11:39:01;;;;;;;15.23;11.20;;;4.40;99.90;;;;;;5075887;28;20460;-63
2024/01/13 11:41:50;;;;;;;20.43;12.60;;;4.40;99.90;;;;;;5075561;28;20457;-63
2024/01/13 11:44:22;;;;;;;16.03;11.43;;;4.40;99.90;;;;;;5071598;28;20950;-63
2024/01/13 11:47:00;;;;;;;14.30;11.53;;;4.40;99.90;;;;;;5075499;28;20445;-63
2024/01/13 11:49:33;;;;;;;14.50;11.50;;;4.40;99.90;;;;;;5075191;28;21009;-63
2024/01/13 11:52:01;;;;;;;16.03;11.87;;;4.40;99.90;;;;;;5075105;28;20961;-63
2024/01/13 11:54:28;;;;;;;15.57;12.33;;;4.40;99.90;;;;;;5075261;28;20481;-63
2024/01/13 11:56:57;;;;;;;17.63;13.00;;;4.30;99.90;;;;;;5075412;28;20443;-63
2024/01/13 11:59:23;;;;;;;16.90;12.80;;;4.30;99.90;;;;;;5075074;28;20472;-63
2024/01/13 12:01:50;;;;;;;20.07;13.50;;;4.20;99.90;;;;;;5074933;28;20452;-63
2024/01/13 12:04:18;;;;;;;19.30;13.70;;;4.20;99.90;;;;;;5075156;28;20448;-64
2024/01/13 12:06:46;;;;;;;20.73;13.83;;;4.20;99.90;;;;;;5075042;28;20449;-63
2024/01/13 12:09:15;;;;;;;21.60;14.67;;;4.20;99.90;;;;;;5074910;28;20464;-63
2024/01/13 12:11:42;;;;;;;19.27;12.90;;;4.20;99.90;;;;;;5075623;28;20452;-63
2024/01/13 12:14:08;;;;;;;24.50;13.73;;;4.20;99.90;;;;;;5074628;28;20480;-63
2024/01/13 12:16:36;;;;;;;21.03;13.83;;;4.20;99.90;;;;;;5074875;28;20441;-63
2024/01/13 12:19:03;;;;;;;20.67;14.83;;;4.10;99.90;;;;;;5074369;28;20835;-63
2024/01/13 12:21:30;;;;;;;19.13;15.30;;;4.10;99.90;;;;;;5074223;28;20450;-63
2024/01/13 12:24:00;;;;;;;25.57;14.70;;;4.20;99.90;;;;;;5074645;28;20445;-63
2024/01/13 12:26:29;;;;;;;22.60;15.53;;;4.20;99.90;;;;;;5074661;28;20422;-63
2024/01/13 12:28:57;;;;;;;25.63;16.20;;;4.20;99.90;;;;;;5074406;28;20468;-63
2024/01/13 12:31:24;;;;;;;23.50;15.93;;;4.20;99.90;;;;;;5074167;28;21011;-63
2024/01/13 12:33:51;;;;;;;21.33;15.27;;;4.20;99.90;;;;;;5073338;28;20512;-63
2024/01/13 12:36:18;;;;;;;25.23;18.27;;;4.30;99.90;;;;;;5074070;28;20463;-63
2024/01/13 12:38:45;;;;;;;28.07;17.80;;;4.30;99.90;;;;;;5074315;28;20467;-63
2024/01/13 12:41:13;;;;;;;26.37;16.90;;;4.30;99.90;;;;;;5074258;28;20532;-63
2024/01/13 12:43:40;;;;;;;25.47;16.47;;;4.30;99.90;;;;;;5074028;28;20445;-63
2024/01/13 12:46:07;;;;;;;25.90;17.40;;;4.30;99.90;;;;;;5074137;28;20436;-63
2024/01/13 12:48:34;;;;;;;25.87;17.70;;;4.20;99.90;;;;;;5074135;28;20480;-63
2024/01/13 12:51:08;;;;;;;26.90;18.73;;;4.20;99.90;;;;;;5073959;28;20440;-63
2024/01/13 12:53:45;;;;;;;28.93;17.80;;;4.10;99.90;;;;;;5091440;28;20518;-63
2024/01/13 12:56:12;;;;;;;27.93;18.40;;;4.00;99.90;;;;;;5090754;28;20899;-63
2024/01/13 12:58:39;;;;;;;27.33;19.13;;;4.00;99.90;;;;;;5090634;28;20474;-63
2024/01/13 13:01:06;;;;;;;30.13;20.20;;;4.00;99.90;;;;;;5090552;28;20451;-63
2024/01/13 13:03:33;;;;;;;30.77;20.40;;;4.00;99.90;;;;;;5090816;28;20517;-63
2024/01/13 13:06:00;;;;;;;31.60;21.43;;;4.00;99.90;;;;;;5090365;28;20447;-63
2024/01/13 13:08:27;;;;;;;30.10;18.83;;;4.10;99.90;;;;;;5090526;28;20845;-64
2024/01/13 13:10:55;;;;;;;30.40;20.57;;;4.00;99.90;;;;;;5090625;28;20440;-64